sensor_id;sensor_type;location;lat;lon;timestamp;pressure;altitude;pressure_sealevel;temperature;humidity
61436;BME280;47304;47.456;19.160;2023-03-15T00:00:04;99012.80;;;9.99;67.34
61436;BME280;47304;47.456;19.160;2023-03-15T00:02:31;99020.39;;;9.97;67.33
61436;BME280;47304;47.456;19.160;2023-03-15T00:04:58;99019.88;;;9.95;67.26
61436;BME280;47304;47.456;19.160;2023-03-15T00:07:24;99022.92;;;9.92;66.93
61436;BME280;47304;47.456;19.160;2023-03-15T00:09:52;99029.78;;;9.90;66.66
61436;BME280;47304;47.456;19.160;2023-03-15T00:12:19;99038.73;;;9.88;66.87
61436;BME280;47304;47.456;19.160;2023-03-15T00:14:45;99040.01;;;9.85;66.73
61436;BME280;47304;47.456;19.160;2023-03-15T00:17:12;99041.10;;;9.83;66.63
61436;BME280;47304;47.456;19.160;2023-03-15T00:19:38;99041.48;;;9.81;66.46
61436;BME280;47304;47.456;19.160;2023-03-15T00:22:05;99047.31;;;9.78;66.54
61436;BME280;47304;47.456;19.160;2023-03-15T00:24:31;99042.63;;;9.76;66.16
61436;BME280;47304;47.456;19.160;2023-03-15T00:26:58;99039.84;;;9.75;66.19
61436;BME280;47304;47.456;19.160;2023-03-15T00:29:24;99034.27;;;9.73;66.03
61436;BME280;47304;47.456;19.160;2023-03-15T00:31:51;99034.32;;;9.71;66.23
61436;BME280;47304;47.456;19.160;2023-03-15T00:34:17;99037.66;;;9.70;66.06
61436;BME280;47304;47.456;19.160;2023-03-15T00:36:44;99033.85;;;9.67;66.04
61436;BME280;47304;47.456;19.160;2023-03-15T00:39:11;99030.04;;;9.65;65.93
61436;BME280;47304;47.456;19.160;2023-03-15T00:41:37;99028.31;;;9.64;65.54
61436;BME280;47304;47.456;19.160;2023-03-15T00:44:04;99020.98;;;9.63;65.59
61436;BME280;47304;47.456;19.160;2023-03-15T00:46:30;99027.69;;;9.61;65.37
61436;BME280;47304;47.456;19.160;2023-03-15T00:48:57;99022.66;;;9.58;65.45
61436;BME280;47304;47.456;19.160;2023-03-15T00:51:23;99020.96;;;9.55;65.17
61436;BME280;47304;47.456;19.160;2023-03-15T00:53:51;99024.00;;;9.52;65.09
61436;BME280;47304;47.456;19.160;2023-03-15T00:56:21;99023.34;;;9.48;65.09
61436;BME280;47304;47.456;19.160;2023-03-15T00:58:49;99023.90;;;9.46;64.97
61436;BME280;47304;47.456;19.160;2023-03-15T01:01:19;99018.86;;;9.45;64.87
61436;BME280;47304;47.456;19.160;2023-03-15T01:03:46;99019.09;;;9.43;64.81
61436;BME280;47304;47.456;19.160;2023-03-15T01:06:16;99012.13;;;9.41;64.65
61436;BME280;47304;47.456;19.160;2023-03-15T01:08:43;99013.91;;;9.39;64.49
61436;BME280;47304;47.456;19.160;2023-03-15T01:11:16;99015.88;;;9.36;64.35
61436;BME280;47304;47.456;19.160;2023-03-15T01:13:43;99019.44;;;9.33;64.03
61436;BME280;47304;47.456;19.160;2023-03-15T01:16:11;99022.79;;;9.30;64.05
61436;BME280;47304;47.456;19.160;2023-03-15T01:18:39;99026.68;;;9.28;63.62
61436;BME280;47304;47.456;19.160;2023-03-15T01:21:07;99027.40;;;9.26;63.48
61436;BME280;47304;47.456;19.160;2023-03-15T01:23:34;99026.38;;;9.26;63.41
61436;BME280;47304;47.456;19.160;2023-03-15T01:26:02;99024.13;;;9.25;63.37
61436;BME280;47304;47.456;19.160;2023-03-15T01:28:29;99026.05;;;9.23;63.21
61436;BME280;47304;47.456;19.160;2023-03-15T01:30:56;99031.84;;;9.21;63.27
61436;BME280;47304;47.456;19.160;2023-03-15T01:33:25;99026.27;;;9.20;63.26
61436;BME280;47304;47.456;19.160;2023-03-15T01:38:25;99032.27;;;9.17;62.65
61436;BME280;47304;47.456;19.160;2023-03-15T01:40:52;99033.65;;;9.17;62.80
61436;BME280;47304;47.456;19.160;2023-03-15T01:43:20;99032.98;;;9.16;62.49
61436;BME280;47304;47.456;19.160;2023-03-15T01:48:45;99029.75;;;9.10;62.27
61436;BME280;47304;47.456;19.160;2023-03-15T01:54:08;99016.60;;;9.03;62.08
61436;BME280;47304;47.456;19.160;2023-03-15T01:56:39;99015.61;;;8.99;61.95
61436;BME280;47304;47.456;19.160;2023-03-15T01:59:12;99011.82;;;8.95;61.88
61436;BME280;47304;47.456;19.160;2023-03-15T02:01:41;99006.11;;;8.91;61.97
61436;BME280;47304;47.456;19.160;2023-03-15T02:04:12;99010.35;;;8.88;61.89
61436;BME280;47304;47.456;19.160;2023-03-15T02:06:42;99007.61;;;8.84;61.90
61436;BME280;47304;47.456;19.160;2023-03-15T02:09:10;99001.39;;;8.81;61.93
61436;BME280;47304;47.456;19.160;2023-03-15T02:11:39;99000.04;;;8.78;61.99
61436;BME280;47304;47.456;19.160;2023-03-15T02:14:08;98998.69;;;8.74;61.79
61436;BME280;47304;47.456;19.160;2023-03-15T02:16:36;99007.45;;;8.72;61.86
61436;BME280;47304;47.456;19.160;2023-03-15T02:19:06;99008.36;;;8.70;61.81
61436;BME280;47304;47.456;19.160;2023-03-15T02:26:45;99009.27;;;8.67;61.50
61436;BME280;47304;47.456;19.160;2023-03-15T02:29:13;99010.89;;;8.65;61.44
61436;BME280;47304;47.456;19.160;2023-03-15T02:31:40;99012.83;;;8.63;61.38
61436;BME280;47304;47.456;19.160;2023-03-15T02:34:07;99011.79;;;8.62;61.35
61436;BME280;47304;47.456;19.160;2023-03-15T02:36:35;99013.74;;;8.60;61.29
61436;BME280;47304;47.456;19.160;2023-03-15T02:39:13;99017.45;;;8.56;61.26
61436;BME280;47304;47.456;19.160;2023-03-15T02:41:42;99024.30;;;8.53;61.27
61436;BME280;47304;47.456;19.160;2023-03-15T02:44:16;99025.22;;;8.49;61.43
61436;BME280;47304;47.456;19.160;2023-03-15T02:46:47;99028.73;;;8.47;61.50
61436;BME280;47304;47.456;19.160;2023-03-15T02:49:16;99029.11;;;8.44;61.69
61436;BME280;47304;47.456;19.160;2023-03-15T02:51:44;99034.36;;;8.41;61.73
61436;BME280;47304;47.456;19.160;2023-03-15T02:54:10;99036.30;;;8.40;61.71
61436;BME280;47304;47.456;19.160;2023-03-15T02:56:37;99034.91;;;8.39;61.98
61436;BME280;47304;47.456;19.160;2023-03-15T02:59:03;99042.77;;;8.39;62.15
61436;BME280;47304;47.456;19.160;2023-03-15T03:01:30;99043.66;;;8.38;62.12
61436;BME280;47304;47.456;19.160;2023-03-15T03:03:56;99043.48;;;8.38;62.25
61436;BME280;47304;47.456;19.160;2023-03-15T03:06:23;99049.77;;;8.39;62.29
61436;BME280;47304;47.456;19.160;2023-03-15T03:08:50;99047.13;;;8.40;62.46
61436;BME280;47304;47.456;19.160;2023-03-15T03:11:16;99043.63;;;8.40;62.41
61436;BME280;47304;47.456;19.160;2023-03-15T03:13:43;99036.45;;;8.41;62.40
61436;BME280;47304;47.456;19.160;2023-03-15T03:16:10;99039.42;;;8.42;62.39
61436;BME280;47304;47.456;19.160;2023-03-15T03:18:37;99040.30;;;8.41;62.47
61436;BME280;47304;47.456;19.160;2023-03-15T03:21:05;99034.02;;;8.40;62.45
61436;BME280;47304;47.456;19.160;2023-03-15T03:23:33;99038.58;;;8.39;62.56
61436;BME280;47304;47.456;19.160;2023-03-15T03:26:01;99034.77;;;8.37;62.65
61436;BME280;47304;47.456;19.160;2023-03-15T03:28:30;99039.35;;;8.34;62.68
61436;BME280;47304;47.456;19.160;2023-03-15T03:30:57;99044.06;;;8.34;62.76
61436;BME280;47304;47.456;19.160;2023-03-15T03:33:24;99044.06;;;8.34;62.75
61436;BME280;47304;47.456;19.160;2023-03-15T03:35:50;99045.46;;;8.33;62.74
61436;BME280;47304;47.456;19.160;2023-03-15T03:38:17;99040.76;;;8.33;62.67
61436;BME280;47304;47.456;19.160;2023-03-15T03:40:44;99043.54;;;8.34;62.68
61436;BME280;47304;47.456;19.160;2023-03-15T03:43:11;99045.64;;;8.34;62.44
61436;BME280;47304;47.456;19.160;2023-03-15T03:45:37;99045.98;;;8.34;62.24
61436;BME280;47304;47.456;19.160;2023-03-15T03:48:04;99040.44;;;8.31;61.95
61436;BME280;47304;47.456;19.160;2023-03-15T03:50:30;99040.80;;;8.30;62.06
61436;BME280;47304;47.456;19.160;2023-03-15T03:52:57;99041.34;;;8.28;61.89
61436;BME280;47304;47.456;19.160;2023-03-15T03:55:23;99036.48;;;8.26;61.91
61436;BME280;47304;47.456;19.160;2023-03-15T03:57:50;99037.02;;;8.25;61.79
61436;BME280;47304;47.456;19.160;2023-03-15T04:00:17;99030.59;;;8.23;61.69
61436;BME280;47304;47.456;19.160;2023-03-15T04:02:44;99030.95;;;8.21;61.65
61436;BME280;47304;47.456;19.160;2023-03-15T04:05:11;99025.39;;;8.20;61.66
61436;BME280;47304;47.456;19.160;2023-03-15T04:07:38;99029.42;;;8.18;61.71
61436;BME280;47304;47.456;19.160;2023-03-15T04:10:05;99033.28;;;8.17;61.58
61436;BME280;47304;47.456;19.160;2023-03-15T04:12:32;99030.50;;;8.16;61.51
61436;BME280;47304;47.456;19.160;2023-03-15T04:14:58;99030.86;;;8.16;61.50
61436;BME280;47304;47.456;19.160;2023-03-15T04:17:25;99034.16;;;8.16;61.16
61436;BME280;47304;47.456;19.160;2023-03-15T04:19:51;99043.39;;;8.17;61.14
61436;BME280;47304;47.456;19.160;2023-03-15T04:22:18;99047.22;;;8.18;61.09
61436;BME280;47304;47.456;19.160;2023-03-15T04:24:44;99044.95;;;8.19;60.68
61436;BME280;47304;47.456;19.160;2023-03-15T04:27:11;99044.94;;;8.19;60.64
61436;BME280;47304;47.456;19.160;2023-03-15T04:29:37;99040.05;;;8.20;60.45
61436;BME280;47304;47.456;19.160;2023-03-15T04:32:04;99048.74;;;8.22;60.32
61436;BME280;47304;47.456;19.160;2023-03-15T04:34:30;99050.65;;;8.23;60.30
61436;BME280;47304;47.456;19.160;2023-03-15T04:36:57;99052.02;;;8.23;60.00
61436;BME280;47304;47.456;19.160;2023-03-15T04:39:23;99055.86;;;8.24;60.06
61436;BME280;47304;47.456;19.160;2023-03-15T04:41:50;99056.57;;;8.24;59.71
61436;BME280;47304;47.456;19.160;2023-03-15T04:44:16;99064.09;;;8.23;59.13
61436;BME280;47304;47.456;19.160;2023-03-15T04:46:43;99061.51;;;8.20;58.79
61436;BME280;47304;47.456;19.160;2023-03-15T04:49:09;99077.91;;;8.19;58.80
61436;BME280;47304;47.456;19.160;2023-03-15T04:51:36;99078.27;;;8.18;58.78
61436;BME280;47304;47.456;19.160;2023-03-15T04:54:03;99077.41;;;8.16;58.02
61436;BME280;47304;47.456;19.160;2023-03-15T04:56:29;99085.13;;;8.14;57.99
61436;BME280;47304;47.456;19.160;2023-03-15T04:58:56;99091.77;;;8.13;57.62
61436;BME280;47304;47.456;19.160;2023-03-15T05:01:27;99097.55;;;8.10;57.68
61436;BME280;47304;47.456;19.160;2023-03-15T05:03:54;99098.45;;;8.08;57.27
61436;BME280;47304;47.456;19.160;2023-03-15T05:06:20;99108.41;;;8.04;57.33
61436;BME280;47304;47.456;19.160;2023-03-15T05:08:47;99105.33;;;8.00;57.23
61436;BME280;47304;47.456;19.160;2023-03-15T05:11:13;99101.02;;;7.95;57.33
61436;BME280;47304;47.456;19.160;2023-03-15T05:13:40;99103.34;;;7.89;57.46
61436;BME280;47304;47.456;19.160;2023-03-15T05:16:07;99106.17;;;7.86;57.69
61436;BME280;47304;47.456;19.160;2023-03-15T05:18:33;99103.08;;;7.78;57.33
61436;BME280;47304;47.456;19.160;2023-03-15T05:21:00;99110.28;;;7.73;57.50
61436;BME280;47304;47.456;19.160;2023-03-15T05:23:26;99108.26;;;7.66;57.53
61436;BME280;47304;47.456;19.160;2023-03-15T05:25:54;99107.46;;;7.58;57.59
61436;BME280;47304;47.456;19.160;2023-03-15T05:28:22;99104.54;;;7.53;57.82
61436;BME280;47304;47.456;19.160;2023-03-15T05:30:50;99104.05;;;7.46;57.76
61436;BME280;47304;47.456;19.160;2023-03-15T05:33:17;99101.86;;;7.38;57.81
61436;BME280;47304;47.456;19.160;2023-03-15T05:35:43;99105.92;;;7.30;58.07
61436;BME280;47304;47.456;19.160;2023-03-15T05:38:11;99104.42;;;7.22;58.16
61436;BME280;47304;47.456;19.160;2023-03-15T05:40:38;99093.33;;;7.14;58.50
61436;BME280;47304;47.456;19.160;2023-03-15T05:43:04;99096.69;;;7.07;58.70
61436;BME280;47304;47.456;19.160;2023-03-15T05:45:31;99097.25;;;7.00;58.90
61436;BME280;47304;47.456;19.160;2023-03-15T05:47:57;99103.05;;;6.94;59.08
61436;BME280;47304;47.456;19.160;2023-03-15T05:50:24;99105.33;;;6.88;59.23
61436;BME280;47304;47.456;19.160;2023-03-15T05:52:50;99101.55;;;6.80;59.45
61436;BME280;47304;47.456;19.160;2023-03-15T05:55:17;99108.53;;;6.76;59.70
61436;BME280;47304;47.456;19.160;2023-03-15T05:57:43;99106.45;;;6.73;59.85
61436;BME280;47304;47.456;19.160;2023-03-15T06:00:11;99103.33;;;6.72;60.01
61436;BME280;47304;47.456;19.160;2023-03-15T06:02:38;99109.60;;;6.71;60.27
61436;BME280;47304;47.456;19.160;2023-03-15T06:05:04;99114.66;;;6.68;60.40
61436;BME280;47304;47.456;19.160;2023-03-15T06:07:31;99120.23;;;6.67;60.55
61436;BME280;47304;47.456;19.160;2023-03-15T06:09:58;99126.16;;;6.65;60.64
61436;BME280;47304;47.456;19.160;2023-03-15T06:12:24;99124.95;;;6.62;60.86
61436;BME280;47304;47.456;19.160;2023-03-15T06:14:51;99131.41;;;6.57;60.96
61436;BME280;47304;47.456;19.160;2023-03-15T06:17:17;99136.65;;;6.54;61.23
61436;BME280;47304;47.456;19.160;2023-03-15T06:19:44;99135.25;;;6.52;61.32
61436;BME280;47304;47.456;19.160;2023-03-15T06:22:11;99137.34;;;6.52;61.42
61436;BME280;47304;47.456;19.160;2023-03-15T06:24:38;99137.16;;;6.53;61.56
61436;BME280;47304;47.456;19.160;2023-03-15T06:27:04;99143.95;;;6.52;61.80
61436;BME280;47304;47.456;19.160;2023-03-15T06:29:31;99143.26;;;6.51;61.84
61436;BME280;47304;47.456;19.160;2023-03-15T06:31:57;99142.39;;;6.48;61.98
61436;BME280;47304;47.456;19.160;2023-03-15T06:34:24;99145.19;;;6.48;61.95
61436;BME280;47304;47.456;19.160;2023-03-15T06:36:50;99139.79;;;6.47;62.26
61436;BME280;47304;47.456;19.160;2023-03-15T06:39:17;99142.77;;;6.45;62.31
61436;BME280;47304;47.456;19.160;2023-03-15T06:41:44;99141.73;;;6.43;62.62
61436;BME280;47304;47.456;19.160;2023-03-15T06:44:10;99135.98;;;6.44;62.58
61436;BME280;47304;47.456;19.160;2023-03-15T06:46:37;99145.55;;;6.44;62.71
61436;BME280;47304;47.456;19.160;2023-03-15T06:49:03;99142.41;;;6.46;62.73
61436;BME280;47304;47.456;19.160;2023-03-15T06:51:30;99149.54;;;6.48;62.63
61436;BME280;47304;47.456;19.160;2023-03-15T06:53:57;99154.05;;;6.51;62.59
61436;BME280;47304;47.456;19.160;2023-03-15T06:56:23;99158.39;;;6.53;62.45
61436;BME280;47304;47.456;19.160;2023-03-15T06:58:50;99162.71;;;6.59;62.55
61436;BME280;47304;47.456;19.160;2023-03-15T07:01:16;99166.18;;;6.65;62.41
61436;BME280;47304;47.456;19.160;2023-03-15T07:03:43;99169.98;;;6.70;62.20
61436;BME280;47304;47.456;19.160;2023-03-15T07:06:09;99173.81;;;6.72;61.98
61436;BME280;47304;47.456;19.160;2023-03-15T07:08:36;99169.47;;;6.73;61.94
61436;BME280;47304;47.456;19.160;2023-03-15T07:11:02;99175.91;;;6.71;61.86
61436;BME280;47304;47.456;19.160;2023-03-15T07:13:29;99179.56;;;6.70;61.83
61436;BME280;47304;47.456;19.160;2023-03-15T07:15:55;99179.57;;;6.67;61.81
61436;BME280;47304;47.456;19.160;2023-03-15T07:18:22;99192.45;;;6.66;61.79
61436;BME280;47304;47.456;19.160;2023-03-15T07:20:59;99190.73;;;6.66;61.93
61436;BME280;47304;47.456;19.160;2023-03-15T07:23:25;99185.84;;;6.67;61.79
61436;BME280;47304;47.456;19.160;2023-03-15T07:25:53;99188.80;;;6.66;61.83
61436;BME280;47304;47.456;19.160;2023-03-15T07:28:22;99190.89;;;6.67;61.79
61436;BME280;47304;47.456;19.160;2023-03-15T07:30:57;99195.60;;;6.63;61.67
61436;BME280;47304;47.456;19.160;2023-03-15T07:33:24;99195.42;;;6.62;61.65
61436;BME280;47304;47.456;19.160;2023-03-15T07:35:52;99202.56;;;6.64;61.69
61436;BME280;47304;47.456;19.160;2023-03-15T07:38:24;99204.66;;;6.61;61.64
61436;BME280;47304;47.456;19.160;2023-03-15T07:40:51;99206.77;;;6.57;61.65
61436;BME280;47304;47.456;19.160;2023-03-15T07:43:18;99208.14;;;6.56;61.61
61436;BME280;47304;47.456;19.160;2023-03-15T07:45:44;99210.92;;;6.57;61.60
61436;BME280;47304;47.456;19.160;2023-03-15T07:48:11;99215.80;;;6.57;61.25
61436;BME280;47304;47.456;19.160;2023-03-15T07:50:38;99215.45;;;6.58;61.32
61436;BME280;47304;47.456;19.160;2023-03-15T07:53:05;99213.19;;;6.62;61.16
61436;BME280;47304;47.456;19.160;2023-03-15T07:55:33;99215.42;;;6.64;60.98
61436;BME280;47304;47.456;19.160;2023-03-15T07:58:00;99213.17;;;6.66;60.63
61436;BME280;47304;47.456;19.160;2023-03-15T08:00:28;99208.30;;;6.66;60.52
61436;BME280;47304;47.456;19.160;2023-03-15T08:02:55;99207.41;;;6.67;60.12
61436;BME280;47304;47.456;19.160;2023-03-15T08:05:22;99212.82;;;6.65;59.95
61436;BME280;47304;47.456;19.160;2023-03-15T08:07:49;99217.70;;;6.66;59.97
61436;BME280;47304;47.456;19.160;2023-03-15T08:10:17;99223.08;;;6.67;59.73
61436;BME280;47304;47.456;19.160;2023-03-15T08:12:43;99227.26;;;6.70;59.41
61436;BME280;47304;47.456;19.160;2023-03-15T08:15:13;99231.77;;;6.71;59.31
61436;BME280;47304;47.456;19.160;2023-03-15T08:17:41;99233.85;;;6.76;59.36
61436;BME280;47304;47.456;19.160;2023-03-15T08:20:09;99236.29;;;6.80;59.03
61436;BME280;47304;47.456;19.160;2023-03-15T08:22:40;99240.10;;;6.81;58.64
61436;BME280;47304;47.456;19.160;2023-03-15T08:25:07;99238.35;;;6.83;58.48
61436;BME280;47304;47.456;19.160;2023-03-15T08:27:33;99242.37;;;6.81;57.97
61436;BME280;47304;47.456;19.160;2023-03-15T08:30:00;99243.75;;;6.80;57.99
61436;BME280;47304;47.456;19.160;2023-03-15T08:32:26;99250.19;;;6.81;58.07
61436;BME280;47304;47.456;19.160;2023-03-15T08:34:53;99255.77;;;6.80;57.49
61436;BME280;47304;47.456;19.160;2023-03-15T08:37:20;99264.65;;;6.78;57.64
61436;BME280;47304;47.456;19.160;2023-03-15T08:39:46;99262.39;;;6.81;57.54
61436;BME280;47304;47.456;19.160;2023-03-15T08:42:13;99267.95;;;6.82;57.09
61436;BME280;47304;47.456;19.160;2023-03-15T08:44:39;99273.35;;;6.82;57.03
61436;BME280;47304;47.456;19.160;2023-03-15T08:47:06;99275.61;;;6.84;56.99
61436;BME280;47304;47.456;19.160;2023-03-15T08:49:32;99279.08;;;6.87;56.67
61436;BME280;47304;47.456;19.160;2023-03-15T08:51:59;99280.29;;;6.91;56.59
61436;BME280;47304;47.456;19.160;2023-03-15T08:54:25;99289.67;;;6.93;56.11
61436;BME280;47304;47.456;19.160;2023-03-15T08:56:52;99298.20;;;6.95;56.07
61436;BME280;47304;47.456;19.160;2023-03-15T08:59:18;99303.96;;;6.97;55.83
61436;BME280;47304;47.456;19.160;2023-03-15T09:01:58;99311.95;;;6.99;55.86
61436;BME280;47304;47.456;19.160;2023-03-15T09:04:25;99313.85;;;7.02;55.54
61436;BME280;47304;47.456;19.160;2023-03-15T09:06:52;99322.04;;;7.02;55.37
61436;BME280;47304;47.456;19.160;2023-03-15T09:09:19;99321.70;;;7.02;54.93
61436;BME280;47304;47.456;19.160;2023-03-15T09:11:45;99330.40;;;7.02;54.76
61436;BME280;47304;47.456;19.160;2023-03-15T09:14:12;99333.19;;;7.01;54.48
61436;BME280;47304;47.456;19.160;2023-03-15T09:16:38;99335.64;;;6.99;54.08
61436;BME280;47304;47.456;19.160;2023-03-15T09:19:05;99343.99;;;6.99;54.39
61436;BME280;47304;47.456;19.160;2023-03-15T09:21:32;99351.99;;;7.00;54.17
61436;BME280;47304;47.456;19.160;2023-03-15T09:23:59;99357.92;;;7.03;53.94
61436;BME280;47304;47.456;19.160;2023-03-15T09:26:26;99360.00;;;7.04;53.70
61436;BME280;47304;47.456;19.160;2023-03-15T09:28:52;99365.91;;;7.07;53.46
61436;BME280;47304;47.456;19.160;2023-03-15T09:31:19;99375.32;;;7.08;53.34
61436;BME280;47304;47.456;19.160;2023-03-15T09:33:45;99375.48;;;7.09;53.47
61436;BME280;47304;47.456;19.160;2023-03-15T09:36:12;99383.52;;;7.07;53.00
61436;BME280;47304;47.456;19.160;2023-03-15T09:38:38;99384.38;;;7.04;53.00
61436;BME280;47304;47.456;19.160;2023-03-15T09:41:05;99394.83;;;7.04;53.10
61436;BME280;47304;47.456;19.160;2023-03-15T09:43:46;99399.54;;;7.02;52.88
61436;BME280;47304;47.456;19.160;2023-03-15T09:46:32;99405.12;;;6.99;52.62
61436;BME280;47304;47.456;19.160;2023-03-15T09:51:56;99410.86;;;6.96;52.99
61436;BME280;47304;47.456;19.160;2023-03-15T09:54:27;99410.52;;;6.94;53.05
61436;BME280;47304;47.456;19.160;2023-03-15T09:57:19;99412.25;;;6.95;53.16
61436;BME280;47304;47.456;19.160;2023-03-15T09:59:51;99417.14;;;6.96;53.44
61436;BME280;47304;47.456;19.160;2023-03-15T10:02:28;99416.95;;;6.97;53.28
61436;BME280;47304;47.456;19.160;2023-03-15T10:04:59;99419.23;;;6.97;53.42
61436;BME280;47304;47.456;19.160;2023-03-15T10:07:26;99418.52;;;7.00;53.56
61436;BME280;47304;47.456;19.160;2023-03-15T10:09:53;99419.55;;;7.05;53.85
61436;BME280;47304;47.456;19.160;2023-03-15T10:12:33;99414.17;;;7.07;53.66
61436;BME280;47304;47.456;19.160;2023-03-15T10:15:22;99421.48;;;7.06;53.68
61436;BME280;47304;47.456;19.160;2023-03-15T10:17:58;99418.35;;;7.06;54.08
61436;BME280;47304;47.456;19.160;2023-03-15T10:20:32;99420.07;;;7.12;53.97
61436;BME280;47304;47.456;19.160;2023-03-15T10:23:10;99413.09;;;7.20;53.22
61436;BME280;47304;47.456;19.160;2023-03-15T10:25:39;99418.83;;;7.23;52.83
61436;BME280;47304;47.456;19.160;2023-03-15T10:30:45;99420.55;;;7.35;52.72
61436;BME280;47304;47.456;19.160;2023-03-15T10:35:46;99428.69;;;7.50;51.59
61436;BME280;47304;47.456;19.160;2023-03-15T10:40:49;99436.66;;;7.65;50.74
61436;BME280;47304;47.456;19.160;2023-03-15T10:43:20;99443.44;;;7.74;49.57
61436;BME280;47304;47.456;19.160;2023-03-15T10:46:10;99441.32;;;7.80;49.49
61436;BME280;47304;47.456;19.160;2023-03-15T10:48:39;99439.19;;;7.90;48.84
61436;BME280;47304;47.456;19.160;2023-03-15T10:51:19;99438.63;;;7.98;48.88
61436;BME280;47304;47.456;19.160;2023-03-15T10:53:52;99441.21;;;8.04;48.46
61436;BME280;47304;47.456;19.160;2023-03-15T10:56:23;99439.08;;;8.11;48.65
61436;BME280;47304;47.456;19.160;2023-03-15T10:58:52;99439.94;;;8.18;48.00
61436;BME280;47304;47.456;19.160;2023-03-15T11:01:37;99438.69;;;8.21;47.49
61436;BME280;47304;47.456;19.160;2023-03-15T11:04:13;99439.01;;;8.24;47.61
61436;BME280;47304;47.456;19.160;2023-03-15T11:06:49;99444.23;;;8.27;47.24
61436;BME280;47304;47.456;19.160;2023-03-15T11:09:19;99441.42;;;8.30;47.54
61436;BME280;47304;47.456;19.160;2023-03-15T11:14:22;99453.02;;;8.49;47.08
61436;BME280;47304;47.456;19.160;2023-03-15T11:16:52;99448.08;;;8.58;47.17
61436;BME280;47304;47.456;19.160;2023-03-15T11:19:22;99455.13;;;8.73;46.59
61436;BME280;47304;47.456;19.160;2023-03-15T11:21:51;99458.69;;;8.86;46.80
61436;BME280;47304;47.456;19.160;2023-03-15T11:24:29;99460.13;;;9.04;46.91
61436;BME280;47304;47.456;19.160;2023-03-15T11:26:59;99459.79;;;9.21;46.03
61436;BME280;47304;47.456;19.160;2023-03-15T11:29:29;99462.94;;;9.39;45.61
61436;BME280;47304;47.456;19.160;2023-03-15T11:31:59;99455.36;;;9.61;45.88
61436;BME280;47304;47.456;19.160;2023-03-15T11:37:11;99454.35;;;10.02;44.25
61436;BME280;47304;47.456;19.160;2023-03-15T11:39:54;99452.67;;;10.24;43.92
61436;BME280;47304;47.456;19.160;2023-03-15T11:45:41;99453.23;;;10.22;42.17
61436;BME280;47304;47.456;19.160;2023-03-15T11:48:20;99457.05;;;10.24;42.92
61436;BME280;47304;47.456;19.160;2023-03-15T11:50:54;99457.48;;;10.31;42.06
61436;BME280;47304;47.456;19.160;2023-03-15T11:53:22;99454.77;;;10.24;41.94
61436;BME280;47304;47.456;19.160;2023-03-15T11:55:51;99456.41;;;10.19;42.15
61436;BME280;47304;47.456;19.160;2023-03-15T11:58:40;99463.94;;;10.20;42.70
61436;BME280;47304;47.456;19.160;2023-03-15T12:01:10;99464.79;;;10.20;42.70
61436;BME280;47304;47.456;19.160;2023-03-15T12:03:39;99459.54;;;10.20;42.23
61436;BME280;47304;47.456;19.160;2023-03-15T12:08:43;99467.38;;;10.24;42.67
61436;BME280;47304;47.456;19.160;2023-03-15T12:14:08;99476.40;;;10.16;41.95
61436;BME280;47304;47.456;19.160;2023-03-15T12:16:45;99482.75;;;10.12;42.03
61436;BME280;47304;47.456;19.160;2023-03-15T12:19:17;99482.85;;;10.04;41.60
61436;BME280;47304;47.456;19.160;2023-03-15T12:21:56;99479.95;;;9.98;42.24
61436;BME280;47304;47.456;19.160;2023-03-15T12:24:34;99477.45;;;10.03;42.26
61436;BME280;47304;47.456;19.160;2023-03-15T12:27:04;99482.10;;;10.09;42.25
61436;BME280;47304;47.456;19.160;2023-03-15T12:29:33;99478.02;;;10.12;41.87
61436;BME280;47304;47.456;19.160;2023-03-15T12:34:34;99479.02;;;10.18;41.87
61436;BME280;47304;47.456;19.160;2023-03-15T12:37:21;99484.89;;;10.23;42.14
61436;BME280;47304;47.456;19.160;2023-03-15T12:39:53;99485.17;;;10.28;42.28
61436;BME280;47304;47.456;19.160;2023-03-15T12:55:50;99502.71;;;9.96;40.47
61436;BME280;47304;47.456;19.160;2023-03-15T12:58:34;99498.98;;;9.86;40.56
61436;BME280;47304;47.456;19.160;2023-03-15T13:01:04;99500.60;;;9.83;40.98
61436;BME280;47304;47.456;19.160;2023-03-15T13:03:33;99502.81;;;9.89;41.15
61436;BME280;47304;47.456;19.160;2023-03-15T13:11:56;99514.19;;;9.71;39.61
61436;BME280;47304;47.456;19.160;2023-03-15T13:17:45;99530.14;;;9.68;40.04
61436;BME280;47304;47.456;19.160;2023-03-15T13:31:32;99535.98;;;9.42;38.72
61436;BME280;47304;47.456;19.160;2023-03-15T13:34:18;99537.07;;;9.38;38.74
61436;BME280;47304;47.456;19.160;2023-03-15T13:36:49;99543.89;;;9.36;39.42
61436;BME280;47304;47.456;19.160;2023-03-15T13:41:47;99547.02;;;9.39;38.98
61436;BME280;47304;47.456;19.160;2023-03-15T13:44:20;99554.52;;;9.40;39.02
61436;BME280;47304;47.456;19.160;2023-03-15T13:46:48;99558.02;;;9.41;38.77
61436;BME280;47304;47.456;19.160;2023-03-15T13:49:16;99559.27;;;9.39;38.73
61436;BME280;47304;47.456;19.160;2023-03-15T13:51:43;99561.19;;;9.38;38.34
61436;BME280;47304;47.456;19.160;2023-03-15T13:59:40;99571.82;;;9.20;37.26
61436;BME280;47304;47.456;19.160;2023-03-15T14:02:16;99575.55;;;9.12;37.83
61436;BME280;47304;47.456;19.160;2023-03-15T14:04:52;99580.79;;;9.12;37.94
61436;BME280;47304;47.456;19.160;2023-03-15T14:10:33;99583.42;;;9.12;37.42
61436;BME280;47304;47.456;19.160;2023-03-15T14:16:01;99588.16;;;9.08;37.50
61436;BME280;47304;47.456;19.160;2023-03-15T14:18:36;99593.39;;;9.09;37.37
61436;BME280;47304;47.456;19.160;2023-03-15T14:21:11;99596.73;;;9.07;37.13
61436;BME280;47304;47.456;19.160;2023-03-15T14:23:41;99600.93;;;9.05;37.33
61436;BME280;47304;47.456;19.160;2023-03-15T14:26:26;99602.67;;;9.04;36.89
61436;BME280;47304;47.456;19.160;2023-03-15T14:28:58;99603.92;;;9.00;36.30
61436;BME280;47304;47.456;19.160;2023-03-15T14:31:31;99605.20;;;8.93;36.38
61436;BME280;47304;47.456;19.160;2023-03-15T14:34:14;99613.61;;;8.85;36.17
61436;BME280;47304;47.456;19.160;2023-03-15T14:36:43;99619.41;;;8.80;36.32